sensor_id;sensor_type;location;lat;lon;timestamp;P1;durP1;ratioP1;P2;durP2;ratioP2
75645;SDS011;64237;52.438;13.240;2023-04-28T00:01:23;16.45;;;5.30;;
75645;SDS011;64237;52.438;13.240;2023-04-28T00:03:48;17.33;;;5.30;;
75645;SDS011;64237;52.438;13.240;2023-04-28T00:06:13;15.73;;;5.47;;
75645;SDS011;64237;52.438;13.240;2023-04-28T00:08:39;15.77;;;5.28;;
75645;SDS011;64237;52.438;13.240;2023-04-28T00:11:11;17.23;;;5.45;;
75645;SDS011;64237;52.438;13.240;2023-04-28T00:13:37;15.93;;;5.50;;
75645;SDS011;64237;52.438;13.240;2023-04-28T00:16:02;13.90;;;5.35;;
75645;SDS011;64237;52.438;13.240;2023-04-28T00:18:28;16.83;;;5.40;;
75645;SDS011;64237;52.438;13.240;2023-04-28T00:20:54;16.08;;;5.38;;
75645;SDS011;64237;52.438;13.240;2023-04-28T00:23:20;15.10;;;5.75;;
75645;SDS011;64237;52.438;13.240;2023-04-28T00:25:49;14.77;;;4.75;;
75645;SDS011;64237;52.438;13.240;2023-04-28T00:28:16;13.73;;;4.85;;
75645;SDS011;64237;52.438;13.240;2023-04-28T00:30:41;14.23;;;4.83;;
75645;SDS011;64237;52.438;13.240;2023-04-28T00:33:06;13.82;;;4.53;;
75645;SDS011;64237;52.438;13.240;2023-04-28T00:35:32;14.75;;;4.90;;
75645;SDS011;64237;52.438;13.240;2023-04-28T00:37:58;13.32;;;4.70;;
75645;SDS011;64237;52.438;13.240;2023-04-28T00:40:31;10.77;;;4.25;;
75645;SDS011;64237;52.438;13.240;2023-04-28T00:43:00;12.88;;;4.00;;
75645;SDS011;64237;52.438;13.240;2023-04-28T00:45:26;13.50;;;4.15;;
75645;SDS011;64237;52.438;13.240;2023-04-28T00:47:52;11.00;;;3.83;;
75645;SDS011;64237;52.438;13.240;2023-04-28T00:50:18;10.98;;;4.10;;
75645;SDS011;64237;52.438;13.240;2023-04-28T00:52:44;12.50;;;4.03;;
75645;SDS011;64237;52.438;13.240;2023-04-28T00:55:10;11.50;;;3.65;;
75645;SDS011;64237;52.438;13.240;2023-04-28T00:57:38;12.75;;;3.80;;
75645;SDS011;64237;52.438;13.240;2023-04-28T01:00:04;12.00;;;4.20;;
75645;SDS011;64237;52.438;13.240;2023-04-28T01:02:30;11.20;;;3.78;;
75645;SDS011;64237;52.438;13.240;2023-04-28T01:04:57;13.95;;;3.65;;
75645;SDS011;64237;52.438;13.240;2023-04-28T01:07:23;10.57;;;3.97;;
75645;SDS011;64237;52.438;13.240;2023-04-28T01:09:48;14.02;;;3.78;;
75645;SDS011;64237;52.438;13.240;2023-04-28T01:12:13;10.65;;;3.42;;
75645;SDS011;64237;52.438;13.240;2023-04-28T01:14:39;10.27;;;2.92;;
75645;SDS011;64237;52.438;13.240;2023-04-28T01:17:05;11.20;;;3.30;;
75645;SDS011;64237;52.438;13.240;2023-04-28T01:19:30;9.88;;;2.90;;
75645;SDS011;64237;52.438;13.240;2023-04-28T01:21:56;9.15;;;3.70;;
75645;SDS011;64237;52.438;13.240;2023-04-28T01:24:21;6.93;;;2.77;;
75645;SDS011;64237;52.438;13.240;2023-04-28T01:26:46;8.40;;;2.97;;
75645;SDS011;64237;52.438;13.240;2023-04-28T01:29:12;8.40;;;2.83;;
75645;SDS011;64237;52.438;13.240;2023-04-28T01:31:37;10.73;;;3.00;;
75645;SDS011;64237;52.438;13.240;2023-04-28T01:34:03;8.02;;;2.92;;
75645;SDS011;64237;52.438;13.240;2023-04-28T01:36:28;10.25;;;2.97;;
75645;SDS011;64237;52.438;13.240;2023-04-28T01:38:54;10.25;;;2.90;;
75645;SDS011;64237;52.438;13.240;2023-04-28T01:41:19;9.82;;;3.53;;
75645;SDS011;64237;52.438;13.240;2023-04-28T01:43:45;7.20;;;2.70;;
75645;SDS011;64237;52.438;13.240;2023-04-28T01:46:10;9.20;;;3.08;;
75645;SDS011;64237;52.438;13.240;2023-04-28T01:48:35;6.47;;;2.70;;
75645;SDS011;64237;52.438;13.240;2023-04-28T01:51:01;6.20;;;2.83;;
75645;SDS011;64237;52.438;13.240;2023-04-28T01:53:26;8.18;;;2.80;;
75645;SDS011;64237;52.438;13.240;2023-04-28T01:55:52;8.70;;;3.10;;
75645;SDS011;64237;52.438;13.240;2023-04-28T01:58:17;7.60;;;2.90;;
75645;SDS011;64237;52.438;13.240;2023-04-28T02:00:43;9.23;;;2.42;;
75645;SDS011;64237;52.438;13.240;2023-04-28T02:03:08;6.75;;;2.90;;
75645;SDS011;64237;52.438;13.240;2023-04-28T02:05:33;9.33;;;2.47;;
75645;SDS011;64237;52.438;13.240;2023-04-28T02:07:59;6.82;;;2.70;;
75645;SDS011;64237;52.438;13.240;2023-04-28T02:10:24;8.07;;;2.95;;
75645;SDS011;64237;52.438;13.240;2023-04-28T02:12:49;8.67;;;2.73;;
75645;SDS011;64237;52.438;13.240;2023-04-28T02:15:15;6.82;;;3.00;;
75645;SDS011;64237;52.438;13.240;2023-04-28T02:17:41;8.82;;;2.85;;
75645;SDS011;64237;52.438;13.240;2023-04-28T02:20:06;6.68;;;3.03;;
75645;SDS011;64237;52.438;13.240;2023-04-28T02:22:32;7.90;;;2.65;;
75645;SDS011;64237;52.438;13.240;2023-04-28T02:24:57;7.90;;;2.53;;
75645;SDS011;64237;52.438;13.240;2023-04-28T02:27:22;10.27;;;2.77;;
75645;SDS011;64237;52.438;13.240;2023-04-28T02:29:48;5.25;;;2.15;;
75645;SDS011;64237;52.438;13.240;2023-04-28T02:32:13;6.50;;;2.90;;
75645;SDS011;64237;52.438;13.240;2023-04-28T02:34:39;9.68;;;2.50;;
75645;SDS011;64237;52.438;13.240;2023-04-28T02:37:04;9.02;;;2.50;;
75645;SDS011;64237;52.438;13.240;2023-04-28T02:39:29;8.20;;;2.95;;
75645;SDS011;64237;52.438;13.240;2023-04-28T02:41:56;9.15;;;2.90;;
75645;SDS011;64237;52.438;13.240;2023-04-28T02:44:22;13.02;;;3.20;;
75645;SDS011;64237;52.438;13.240;2023-04-28T02:46:47;10.45;;;2.88;;
75645;SDS011;64237;52.438;13.240;2023-04-28T02:49:13;7.30;;;2.70;;
75645;SDS011;64237;52.438;13.240;2023-04-28T02:51:38;10.83;;;2.67;;
75645;SDS011;64237;52.438;13.240;2023-04-28T02:54:04;6.63;;;2.45;;
75645;SDS011;64237;52.438;13.240;2023-04-28T02:56:29;8.55;;;2.45;;
75645;SDS011;64237;52.438;13.240;2023-04-28T02:58:55;10.18;;;3.22;;
75645;SDS011;64237;52.438;13.240;2023-04-28T03:01:20;8.38;;;2.65;;
75645;SDS011;64237;52.438;13.240;2023-04-28T03:03:46;11.50;;;2.53;;
75645;SDS011;64237;52.438;13.240;2023-04-28T03:06:11;8.30;;;2.50;;
75645;SDS011;64237;52.438;13.240;2023-04-28T03:08:36;6.10;;;2.67;;
75645;SDS011;64237;52.438;13.240;2023-04-28T03:11:02;8.50;;;2.90;;
75645;SDS011;64237;52.438;13.240;2023-04-28T03:13:27;8.52;;;2.50;;
75645;SDS011;64237;52.438;13.240;2023-04-28T03:15:54;8.85;;;2.40;;
75645;SDS011;64237;52.438;13.240;2023-04-28T03:18:19;8.50;;;2.70;;
75645;SDS011;64237;52.438;13.240;2023-04-28T03:20:46;10.25;;;3.00;;
75645;SDS011;64237;52.438;13.240;2023-04-28T03:23:12;9.80;;;2.97;;
75645;SDS011;64237;52.438;13.240;2023-04-28T03:25:37;9.33;;;2.87;;
75645;SDS011;64237;52.438;13.240;2023-04-28T03:28:02;12.73;;;3.57;;
75645;SDS011;64237;52.438;13.240;2023-04-28T03:30:28;8.30;;;2.30;;
75645;SDS011;64237;52.438;13.240;2023-04-28T03:32:53;8.30;;;2.97;;
75645;SDS011;64237;52.438;13.240;2023-04-28T03:35:18;9.20;;;2.50;;
75645;SDS011;64237;52.438;13.240;2023-04-28T03:37:44;8.17;;;2.77;;
75645;SDS011;64237;52.438;13.240;2023-04-28T03:40:09;7.90;;;2.53;;
75645;SDS011;64237;52.438;13.240;2023-04-28T03:42:35;7.32;;;2.33;;
75645;SDS011;64237;52.438;13.240;2023-04-28T03:45:00;7.20;;;2.57;;
75645;SDS011;64237;52.438;13.240;2023-04-28T03:47:26;8.65;;;2.70;;
75645;SDS011;64237;52.438;13.240;2023-04-28T03:49:52;6.45;;;2.53;;
75645;SDS011;64237;52.438;13.240;2023-04-28T03:52:17;7.90;;;2.53;;
75645;SDS011;64237;52.438;13.240;2023-04-28T03:54:43;8.07;;;2.45;;
75645;SDS011;64237;52.438;13.240;2023-04-28T03:57:08;9.75;;;2.75;;
75645;SDS011;64237;52.438;13.240;2023-04-28T03:59:34;6.57;;;2.70;;
75645;SDS011;64237;52.438;13.240;2023-04-28T04:01:59;8.20;;;2.67;;
75645;SDS011;64237;52.438;13.240;2023-04-28T04:04:25;7.63;;;2.90;;
75645;SDS011;64237;52.438;13.240;2023-04-28T04:06:50;9.03;;;3.33;;
75645;SDS011;64237;52.438;13.240;2023-04-28T04:09:16;8.93;;;3.17;;
75645;SDS011;64237;52.438;13.240;2023-04-28T04:11:41;9.80;;;3.53;;
75645;SDS011;64237;52.438;13.240;2023-04-28T04:14:06;12.70;;;4.00;;
75645;SDS011;64237;52.438;13.240;2023-04-28T04:16:32;10.50;;;3.53;;
75645;SDS011;64237;52.438;13.240;2023-04-28T04:18:57;7.60;;;3.13;;
75645;SDS011;64237;52.438;13.240;2023-04-28T04:21:22;9.77;;;3.30;;
75645;SDS011;64237;52.438;13.240;2023-04-28T04:23:48;7.38;;;2.92;;
75645;SDS011;64237;52.438;13.240;2023-04-28T04:26:13;6.95;;;2.83;;
75645;SDS011;64237;52.438;13.240;2023-04-28T04:28:39;7.88;;;3.08;;
75645;SDS011;64237;52.438;13.240;2023-04-28T04:31:04;7.63;;;2.83;;
75645;SDS011;64237;52.438;13.240;2023-04-28T04:33:30;7.40;;;2.70;;
75645;SDS011;64237;52.438;13.240;2023-04-28T04:35:55;8.25;;;2.60;;
75645;SDS011;64237;52.438;13.240;2023-04-28T04:38:21;9.50;;;3.20;;
75645;SDS011;64237;52.438;13.240;2023-04-28T04:40:46;8.63;;;2.60;;
75645;SDS011;64237;52.438;13.240;2023-04-28T04:43:11;6.18;;;2.65;;
75645;SDS011;64237;52.438;13.240;2023-04-28T04:45:37;9.82;;;2.80;;
75645;SDS011;64237;52.438;13.240;2023-04-28T04:48:03;9.48;;;3.03;;
75645;SDS011;64237;52.438;13.240;2023-04-28T04:50:28;6.05;;;2.40;;
75645;SDS011;64237;52.438;13.240;2023-04-28T04:52:53;7.87;;;2.63;;
75645;SDS011;64237;52.438;13.240;2023-04-28T04:55:20;6.25;;;2.40;;
75645;SDS011;64237;52.438;13.240;2023-04-28T04:57:46;7.05;;;2.53;;
75645;SDS011;64237;52.438;13.240;2023-04-28T05:00:12;6.30;;;2.45;;
75645;SDS011;64237;52.438;13.240;2023-04-28T05:02:37;8.32;;;2.90;;
75645;SDS011;64237;52.438;13.240;2023-04-28T05:05:03;7.57;;;2.70;;
75645;SDS011;64237;52.438;13.240;2023-04-28T05:07:28;8.13;;;2.60;;
75645;SDS011;64237;52.438;13.240;2023-04-28T05:09:54;8.77;;;2.42;;
75645;SDS011;64237;52.438;13.240;2023-04-28T05:12:19;6.60;;;2.50;;
75645;SDS011;64237;52.438;13.240;2023-04-28T05:14:45;7.90;;;2.72;;
75645;SDS011;64237;52.438;13.240;2023-04-28T05:17:10;7.63;;;2.57;;
75645;SDS011;64237;52.438;13.240;2023-04-28T05:19:36;10.23;;;3.22;;
75645;SDS011;64237;52.438;13.240;2023-04-28T05:22:02;9.27;;;2.20;;
75645;SDS011;64237;52.438;13.240;2023-04-28T05:24:27;8.87;;;2.40;;
75645;SDS011;64237;52.438;13.240;2023-04-28T05:26:52;6.63;;;2.30;;
75645;SDS011;64237;52.438;13.240;2023-04-28T05:29:18;8.85;;;2.75;;
75645;SDS011;64237;52.438;13.240;2023-04-28T05:31:46;5.82;;;2.38;;
75645;SDS011;64237;52.438;13.240;2023-04-28T05:34:11;7.03;;;2.47;;
75645;SDS011;64237;52.438;13.240;2023-04-28T05:36:37;9.70;;;2.97;;
75645;SDS011;64237;52.438;13.240;2023-04-28T05:39:02;6.68;;;2.42;;
75645;SDS011;64237;52.438;13.240;2023-04-28T05:41:27;6.43;;;2.30;;
75645;SDS011;64237;52.438;13.240;2023-04-28T05:43:53;5.70;;;2.40;;
75645;SDS011;64237;52.438;13.240;2023-04-28T05:46:18;8.43;;;2.60;;
75645;SDS011;64237;52.438;13.240;2023-04-28T05:48:44;7.38;;;2.50;;
75645;SDS011;64237;52.438;13.240;2023-04-28T05:51:09;8.15;;;2.33;;
75645;SDS011;64237;52.438;13.240;2023-04-28T05:53:35;8.82;;;2.53;;
75645;SDS011;64237;52.438;13.240;2023-04-28T05:56:00;6.60;;;2.67;;
75645;SDS011;64237;52.438;13.240;2023-04-28T05:58:25;8.27;;;2.65;;
75645;SDS011;64237;52.438;13.240;2023-04-28T06:00:51;7.50;;;2.70;;
75645;SDS011;64237;52.438;13.240;2023-04-28T06:03:17;7.35;;;2.33;;
75645;SDS011;64237;52.438;13.240;2023-04-28T06:05:43;6.72;;;2.60;;
75645;SDS011;64237;52.438;13.240;2023-04-28T06:08:09;8.07;;;2.25;;
75645;SDS011;64237;52.438;13.240;2023-04-28T06:10:34;5.75;;;2.70;;
75645;SDS011;64237;52.438;13.240;2023-04-28T06:13:00;5.78;;;2.08;;
75645;SDS011;64237;52.438;13.240;2023-04-28T06:15:28;9.02;;;2.70;;
75645;SDS011;64237;52.438;13.240;2023-04-28T06:17:54;9.27;;;3.22;;
75645;SDS011;64237;52.438;13.240;2023-04-28T06:20:20;8.43;;;2.10;;
75645;SDS011;64237;52.438;13.240;2023-04-28T06:22:45;8.95;;;2.50;;
75645;SDS011;64237;52.438;13.240;2023-04-28T06:25:11;9.20;;;2.30;;
75645;SDS011;64237;52.438;13.240;2023-04-28T06:27:36;7.20;;;2.47;;
75645;SDS011;64237;52.438;13.240;2023-04-28T06:30:01;5.57;;;2.35;;
75645;SDS011;64237;52.438;13.240;2023-04-28T06:32:27;8.95;;;2.55;;
75645;SDS011;64237;52.438;13.240;2023-04-28T06:34:52;6.40;;;2.37;;
75645;SDS011;64237;52.438;13.240;2023-04-28T06:37:18;9.63;;;2.50;;
75645;SDS011;64237;52.438;13.240;2023-04-28T06:39:43;5.80;;;2.08;;
75645;SDS011;64237;52.438;13.240;2023-04-28T06:42:08;12.17;;;4.07;;
75645;SDS011;64237;52.438;13.240;2023-04-28T06:44:34;6.80;;;2.25;;
75645;SDS011;64237;52.438;13.240;2023-04-28T06:46:59;7.63;;;2.42;;
75645;SDS011;64237;52.438;13.240;2023-04-28T06:49:24;7.05;;;2.13;;
75645;SDS011;64237;52.438;13.240;2023-04-28T06:51:50;8.98;;;2.70;;
75645;SDS011;64237;52.438;13.240;2023-04-28T06:54:15;8.40;;;2.17;;
75645;SDS011;64237;52.438;13.240;2023-04-28T06:56:40;8.60;;;2.50;;
75645;SDS011;64237;52.438;13.240;2023-04-28T06:59:06;5.55;;;2.28;;
75645;SDS011;64237;52.438;13.240;2023-04-28T07:01:32;7.05;;;2.25;;
75645;SDS011;64237;52.438;13.240;2023-04-28T07:03:57;9.05;;;2.28;;
75645;SDS011;64237;52.438;13.240;2023-04-28T07:06:22;6.45;;;2.20;;
75645;SDS011;64237;52.438;13.240;2023-04-28T07:08:48;7.07;;;2.70;;
75645;SDS011;64237;52.438;13.240;2023-04-28T07:11:13;6.03;;;2.22;;
75645;SDS011;64237;52.438;13.240;2023-04-28T07:13:40;7.15;;;2.25;;
75645;SDS011;64237;52.438;13.240;2023-04-28T07:16:05;8.00;;;2.17;;
75645;SDS011;64237;52.438;13.240;2023-04-28T07:18:31;6.72;;;2.58;;
75645;SDS011;64237;52.438;13.240;2023-04-28T07:20:56;4.88;;;2.13;;
75645;SDS011;64237;52.438;13.240;2023-04-28T07:23:21;6.40;;;2.60;;
75645;SDS011;64237;52.438;13.240;2023-04-28T07:25:47;7.97;;;2.20;;
75645;SDS011;64237;52.438;13.240;2023-04-28T07:28:12;9.15;;;2.53;;
75645;SDS011;64237;52.438;13.240;2023-04-28T07:30:38;6.25;;;2.40;;
75645;SDS011;64237;52.438;13.240;2023-04-28T07:33:03;6.07;;;2.25;;
75645;SDS011;64237;52.438;13.240;2023-04-28T07:35:29;6.57;;;2.42;;
75645;SDS011;64237;52.438;13.240;2023-04-28T07:37:55;5.32;;;2.10;;
75645;SDS011;64237;52.438;13.240;2023-04-28T07:40:21;6.93;;;2.20;;
75645;SDS011;64237;52.438;13.240;2023-04-28T07:42:47;9.30;;;2.30;;
75645;SDS011;64237;52.438;13.240;2023-04-28T07:45:13;7.45;;;2.45;;
75645;SDS011;64237;52.438;13.240;2023-04-28T07:47:39;7.35;;;2.42;;
75645;SDS011;64237;52.438;13.240;2023-04-28T07:50:05;6.82;;;2.25;;
75645;SDS011;64237;52.438;13.240;2023-04-28T07:52:31;5.95;;;2.53;;
75645;SDS011;64237;52.438;13.240;2023-04-28T07:54:57;6.90;;;2.90;;
75645;SDS011;64237;52.438;13.240;2023-04-28T07:57:24;5.65;;;2.33;;
75645;SDS011;64237;52.438;13.240;2023-04-28T07:59:50;6.68;;;2.65;;
75645;SDS011;64237;52.438;13.240;2023-04-28T08:02:16;9.00;;;2.58;;
75645;SDS011;64237;52.438;13.240;2023-04-28T08:04:43;6.88;;;2.60;;
75645;SDS011;64237;52.438;13.240;2023-04-28T08:07:08;9.18;;;2.47;;
75645;SDS011;64237;52.438;13.240;2023-04-28T08:09:34;6.07;;;2.30;;
75645;SDS011;64237;52.438;13.240;2023-04-28T08:11:59;7.07;;;2.28;;
75645;SDS011;64237;52.438;13.240;2023-04-28T08:14:25;7.30;;;2.70;;
75645;SDS011;64237;52.438;13.240;2023-04-28T08:16:51;8.35;;;2.80;;
75645;SDS011;64237;52.438;13.240;2023-04-28T08:19:18;5.43;;;2.33;;
75645;SDS011;64237;52.438;13.240;2023-04-28T08:21:44;6.75;;;2.42;;
75645;SDS011;64237;52.438;13.240;2023-04-28T08:24:09;8.00;;;2.40;;
75645;SDS011;64237;52.438;13.240;2023-04-28T08:26:38;8.18;;;2.58;;
75645;SDS011;64237;52.438;13.240;2023-04-28T08:29:03;7.57;;;2.35;;
75645;SDS011;64237;52.438;13.240;2023-04-28T08:31:29;5.25;;;2.42;;
75645;SDS011;64237;52.438;13.240;2023-04-28T08:33:54;11.40;;;2.42;;
75645;SDS011;64237;52.438;13.240;2023-04-28T08:36:20;8.25;;;2.38;;
75645;SDS011;64237;52.438;13.240;2023-04-28T08:38:45;7.38;;;2.63;;
75645;SDS011;64237;52.438;13.240;2023-04-28T08:41:14;8.27;;;2.80;;
75645;SDS011;64237;52.438;13.240;2023-04-28T08:43:40;7.55;;;2.50;;
75645;SDS011;64237;52.438;13.240;2023-04-28T08:46:08;7.47;;;2.42;;
75645;SDS011;64237;52.438;13.240;2023-04-28T08:48:43;8.48;;;2.60;;
75645;SDS011;64237;52.438;13.240;2023-04-28T08:51:16;6.93;;;2.63;;
75645;SDS011;64237;52.438;13.240;2023-04-28T08:53:52;8.02;;;2.50;;
75645;SDS011;64237;52.438;13.240;2023-04-28T08:56:20;11.48;;;2.78;;
75645;SDS011;64237;52.438;13.240;2023-04-28T08:58:47;9.60;;;3.10;;
75645;SDS011;64237;52.438;13.240;2023-04-28T09:01:13;8.30;;;2.72;;
75645;SDS011;64237;52.438;13.240;2023-04-28T09:03:38;7.72;;;2.75;;
75645;SDS011;64237;52.438;13.240;2023-04-28T09:06:04;7.72;;;2.67;;
75645;SDS011;64237;52.438;13.240;2023-04-28T09:08:29;7.63;;;2.85;;
75645;SDS011;64237;52.438;13.240;2023-04-28T09:11:07;10.25;;;2.97;;
75645;SDS011;64237;52.438;13.240;2023-04-28T09:13:34;7.70;;;2.60;;
75645;SDS011;64237;52.438;13.240;2023-04-28T09:16:00;8.50;;;2.72;;
75645;SDS011;64237;52.438;13.240;2023-04-28T09:18:28;7.43;;;2.65;;
75645;SDS011;64237;52.438;13.240;2023-04-28T09:21:06;8.23;;;3.20;;
75645;SDS011;64237;52.438;13.240;2023-04-28T09:23:33;8.52;;;3.05;;
75645;SDS011;64237;52.438;13.240;2023-04-28T09:26:10;9.77;;;2.90;;
75645;SDS011;64237;52.438;13.240;2023-04-28T09:28:35;12.55;;;2.80;;
75645;SDS011;64237;52.438;13.240;2023-04-28T09:31:00;9.00;;;3.00;;
75645;SDS011;64237;52.438;13.240;2023-04-28T09:33:26;7.78;;;2.85;;
75645;SDS011;64237;52.438;13.240;2023-04-28T09:35:52;11.43;;;3.10;;
75645;SDS011;64237;52.438;13.240;2023-04-28T09:38:18;6.63;;;2.78;;
75645;SDS011;64237;52.438;13.240;2023-04-28T09:41:00;9.50;;;2.80;;
75645;SDS011;64237;52.438;13.240;2023-04-28T09:43:30;9.68;;;2.90;;
75645;SDS011;64237;52.438;13.240;2023-04-28T09:46:03;7.70;;;2.88;;
75645;SDS011;64237;52.438;13.240;2023-04-28T09:48:30;12.98;;;3.00;;
75645;SDS011;64237;52.438;13.240;2023-04-28T09:50:58;9.98;;;3.20;;
75645;SDS011;64237;52.438;13.240;2023-04-28T09:53:25;8.52;;;2.88;;
75645;SDS011;64237;52.438;13.240;2023-04-28T09:55:52;7.72;;;3.13;;
75645;SDS011;64237;52.438;13.240;2023-04-28T09:58:19;7.95;;;2.97;;
75645;SDS011;64237;52.438;13.240;2023-04-28T10:00:46;10.43;;;3.17;;
75645;SDS011;64237;52.438;13.240;2023-04-28T10:03:17;7.47;;;2.70;;
75645;SDS011;64237;52.438;13.240;2023-04-28T10:08:11;7.38;;;2.72;;
75645;SDS011;64237;52.438;13.240;2023-04-28T10:10:37;8.57;;;2.65;;
75645;SDS011;64237;52.438;13.240;2023-04-28T10:13:03;8.10;;;2.78;;
75645;SDS011;64237;52.438;13.240;2023-04-28T10:15:29;7.72;;;2.50;;
75645;SDS011;64237;52.438;13.240;2023-04-28T10:17:55;10.25;;;2.67;;
75645;SDS011;64237;52.438;13.240;2023-04-28T10:20:23;10.60;;;2.90;;
75645;SDS011;64237;52.438;13.240;2023-04-28T10:25:43;8.57;;;3.35;;
75645;SDS011;64237;52.438;13.240;2023-04-28T10:28:13;7.18;;;3.03;;
75645;SDS011;64237;52.438;13.240;2023-04-28T10:30:39;8.38;;;3.30;;
75645;SDS011;64237;52.438;13.240;2023-04-28T10:43:04;7.47;;;3.40;;
75645;SDS011;64237;52.438;13.240;2023-04-28T10:56:06;8.93;;;3.40;;
75645;SDS011;64237;52.438;13.240;2023-04-28T10:58:31;6.07;;;2.65;;
75645;SDS011;64237;52.438;13.240;2023-04-28T11:01:23;7.22;;;2.63;;
75645;SDS011;64237;52.438;13.240;2023-04-28T11:06:41;8.63;;;3.25;;
75645;SDS011;64237;52.438;13.240;2023-04-28T11:12:24;8.18;;;3.08;;
75645;SDS011;64237;52.438;13.240;2023-04-28T11:16:50;9.05;;;3.40;;
75645;SDS011;64237;52.438;13.240;2023-04-28T11:19:21;11.43;;;3.38;;
75645;SDS011;64237;52.438;13.240;2023-04-28T11:21:51;7.53;;;3.17;;
75645;SDS011;64237;52.438;13.240;2023-04-28T11:24:19;9.65;;;3.65;;
75645;SDS011;64237;52.438;13.240;2023-04-28T11:26:44;8.20;;;3.13;;
75645;SDS011;64237;52.438;13.240;2023-04-28T11:29:10;6.60;;;2.85;;
75645;SDS011;64237;52.438;13.240;2023-04-28T11:31:36;9.07;;;3.08;;
75645;SDS011;64237;52.438;13.240;2023-04-28T11:36:35;9.32;;;3.28;;
75645;SDS011;64237;52.438;13.240;2023-04-28T11:39:08;14.38;;;2.50;;
75645;SDS011;64237;52.438;13.240;2023-04-28T11:41:38;7.22;;;3.10;;
75645;SDS011;64237;52.438;13.240;2023-04-28T11:44:12;6.97;;;3.08;;
75645;SDS011;64237;52.438;13.240;2023-04-28T11:49:23;8.05;;;2.92;;
75645;SDS011;64237;52.438;13.240;2023-04-28T11:51:49;13.82;;;4.13;;
75645;SDS011;64237;52.438;13.240;2023-04-28T11:54:26;7.93;;;3.38;;
75645;SDS011;64237;52.438;13.240;2023-04-28T11:56:53;12.70;;;3.58;;
75645;SDS011;64237;52.438;13.240;2023-04-28T11:59:26;9.90;;;3.60;;
75645;SDS011;64237;52.438;13.240;2023-04-28T12:01:57;9.25;;;3.58;;
75645;SDS011;64237;52.438;13.240;2023-04-28T12:04:28;11.32;;;3.55;;
75645;SDS011;64237;52.438;13.240;2023-04-28T12:07:04;13.55;;;3.47;;
75645;SDS011;64237;52.438;13.240;2023-04-28T12:09:34;10.38;;;3.80;;
75645;SDS011;64237;52.438;13.240;2023-04-28T12:12:01;8.52;;;2.95;;
75645;SDS011;64237;52.438;13.240;2023-04-28T12:17:26;9.13;;;3.42;;
75645;SDS011;64237;52.438;13.240;2023-04-28T12:19:53;10.07;;;3.75;;
75645;SDS011;64237;52.438;13.240;2023-04-28T12:22:19;10.15;;;3.58;;
75645;SDS011;64237;52.438;13.240;2023-04-28T12:24:45;9.15;;;3.15;;
75645;SDS011;64237;52.438;13.240;2023-04-28T12:27:19;9.05;;;3.17;;
75645;SDS011;64237;52.438;13.240;2023-04-28T12:29:49;8.63;;;3.47;;
75645;SDS011;64237;52.438;13.240;2023-04-28T12:32:15;8.60;;;3.03;;
75645;SDS011;64237;52.438;13.240;2023-04-28T12:34:43;6.95;;;3.20;;
75645;SDS011;64237;52.438;13.240;2023-04-28T12:37:10;12.75;;;3.85;;
75645;SDS011;64237;52.438;13.240;2023-04-28T12:39:36;10.88;;;3.45;;
75645;SDS011;64237;52.438;13.240;2023-04-28T12:42:03;10.43;;;3.10;;
75645;SDS011;64237;52.438;13.240;2023-04-28T12:44:34;8.98;;;3.00;;
75645;SDS011;64237;52.438;13.240;2023-04-28T12:47:04;11.90;;;3.00;;
75645;SDS011;64237;52.438;13.240;2023-04-28T12:49:31;9.75;;;2.90;;
75645;SDS011;64237;52.438;13.240;2023-04-28T12:51:57;8.88;;;3.13;;
75645;SDS011;64237;52.438;13.240;2023-04-28T12:54:22;10.23;;;3.10;;
75645;SDS011;64237;52.438;13.240;2023-04-28T12:56:47;8.50;;;3.20;;
75645;SDS011;64237;52.438;13.240;2023-04-28T12:59:13;7.20;;;2.75;;
75645;SDS011;64237;52.438;13.240;2023-04-28T13:01:38;6.68;;;2.97;;
75645;SDS011;64237;52.438;13.240;2023-04-28T13:04:04;9.27;;;2.60;;
75645;SDS011;64237;52.438;13.240;2023-04-28T13:06:29;10.52;;;3.50;;
75645;SDS011;64237;52.438;13.240;2023-04-28T13:08:55;8.90;;;2.40;;
75645;SDS011;64237;52.438;13.240;2023-04-28T13:11:20;8.90;;;2.88;;
75645;SDS011;64237;52.438;13.240;2023-04-28T13:13:47;8.77;;;2.95;;
75645;SDS011;64237;52.438;13.240;2023-04-28T13:16:12;8.73;;;3.00;;
75645;SDS011;64237;52.438;13.240;2023-04-28T13:18:38;8.73;;;3.42;;
75645;SDS011;64237;52.438;13.240;2023-04-28T13:21:04;9.98;;;3.38;;
75645;SDS011;64237;52.438;13.240;2023-04-28T13:23:29;9.00;;;3.53;;
75645;SDS011;64237;52.438;13.240;2023-04-28T13:25:55;9.30;;;3.08;;
75645;SDS011;64237;52.438;13.240;2023-04-28T13:28:20;8.32;;;3.33;;
75645;SDS011;64237;52.438;13.240;2023-04-28T13:30:46;8.88;;;2.95;;
75645;SDS011;64237;52.438;13.240;2023-04-28T13:33:11;8.10;;;2.90;;
75645;SDS011;64237;52.438;13.240;2023-04-28T13:35:36;6.72;;;2.92;;
75645;SDS011;64237;52.438;13.240;2023-04-28T13:38:02;7.35;;;2.97;;
75645;SDS011;64237;52.438;13.240;2023-04-28T13:40:28;8.70;;;3.45;;
75645;SDS011;64237;52.438;13.240;2023-04-28T13:42:54;10.23;;;3.58;;
75645;SDS011;64237;52.438;13.240;2023-04-28T13:45:19;7.30;;;3.63;;
75645;SDS011;64237;52.438;13.240;2023-04-28T13:47:45;11.95;;;3.58;;
75645;SDS011;64237;52.438;13.240;2023-04-28T13:50:11;9.95;;;3.67;;
75645;SDS011;64237;52.438;13.240;2023-04-28T13:52:36;9.20;;;3.53;;
75645;SDS011;64237;52.438;13.240;2023-04-28T13:55:01;8.23;;;3.88;;
75645;SDS011;64237;52.438;13.240;2023-04-28T13:57:27;8.48;;;3.50;;
75645;SDS011;64237;52.438;13.240;2023-04-28T13:59:53;10.73;;;3.30;;
75645;SDS011;64237;52.438;13.240;2023-04-28T14:02:18;13.07;;;4.10;;
75645;SDS011;64237;52.438;13.240;2023-04-28T14:04:43;10.40;;;3.63;;
75645;SDS011;64237;52.438;13.240;2023-04-28T14:07:13;10.23;;;3.45;;
75645;SDS011;64237;52.438;13.240;2023-04-28T14:09:38;10.40;;;2.92;;
75645;SDS011;64237;52.438;13.240;2023-04-28T14:12:04;10.93;;;3.40;;
75645;SDS011;64237;52.438;13.240;2023-04-28T14:14:30;13.95;;;3.20;;
75645;SDS011;64237;52.438;13.240;2023-04-28T14:16:56;11.68;;;3.63;;
75645;SDS011;64237;52.438;13.240;2023-04-28T14:19:21;9.77;;;3.53;;
75645;SDS011;64237;52.438;13.240;2023-04-28T14:21:46;9.82;;;3.72;;
75645;SDS011;64237;52.438;13.240;2023-04-28T14:24:12;8.68;;;3.40;;
75645;SDS011;64237;52.438;13.240;2023-04-28T14:26:38;16.20;;;4.07;;
75645;SDS011;64237;52.438;13.240;2023-04-28T14:29:04;9.35;;;3.40;;
75645;SDS011;64237;52.438;13.240;2023-04-28T14:31:29;7.13;;;3.05;;
75645;SDS011;64237;52.438;13.240;2023-04-28T14:33:55;9.13;;;3.30;;
75645;SDS011;64237;52.438;13.240;2023-04-28T14:36:20;7.77;;;3.70;;
75645;SDS011;64237;52.438;13.240;2023-04-28T14:38:46;9.20;;;3.60;;
75645;SDS011;64237;52.438;13.240;2023-04-28T14:41:11;10.82;;;3.63;;
75645;SDS011;64237;52.438;13.240;2023-04-28T14:43:36;10.13;;;3.63;;
75645;SDS011;64237;52.438;13.240;2023-04-28T14:46:02;9.48;;;3.70;;
75645;SDS011;64237;52.438;13.240;2023-04-28T14:48:28;9.77;;;3.45;;
75645;SDS011;64237;52.438;13.240;2023-04-28T14:50:56;8.25;;;3.45;;
75645;SDS011;64237;52.438;13.240;2023-04-28T14:53:21;9.30;;;3.50;;
75645;SDS011;64237;52.438;13.240;2023-04-28T14:55:47;9.93;;;3.35;;
75645;SDS011;64237;52.438;13.240;2023-04-28T14:58:13;8.93;;;3.75;;
75645;SDS011;64237;52.438;13.240;2023-04-28T15:00:39;8.30;;;3.65;;
75645;SDS011;64237;52.438;13.240;2023-04-28T15:03:04;12.32;;;3.95;;
75645;SDS011;64237;52.438;13.240;2023-04-28T15:05:30;9.57;;;3.80;;
75645;SDS011;64237;52.438;13.240;2023-04-28T15:07:55;8.80;;;4.00;;